Time;durP1;ratioP1;P1;durP2;ratioP2;P2;SDS_P1;SDS_P2;PMS_P1;PMS_P2;Temp;Humidity;BMP_temperature;BMP_pressure;BME280_temperature;BME280_humidity;BME280_pressure;Samples;Min_cycle;Max_cycle;Signal;HPM_P1;HPM_P2
2022/07/10 00:01:56;;;;;;;7.47;5.50;;;23.80;79.60;;;;;;5055582;28;20040;-80
2022/07/10 00:04:22;;;;;;;10.20;5.13;;;23.80;79.30;;;;;;5056610;28;20031;-80
2022/07/10 00:06:48;;;;;;;6.85;4.68;;;23.70;78.80;;;;;;5055280;28;20032;-80
2022/07/10 00:09:14;;;;;;;8.20;4.80;;;23.50;78.80;;;;;;5041001;28;20078;-80
2022/07/10 00:11:41;;;;;;;6.25;4.15;;;23.60;78.70;;;;;;5055038;28;20602;-79
2022/07/10 00:14:07;;;;;;;5.22;3.85;;;23.60;79.50;;;;;;5056615;28;20039;-81
2022/07/10 00:16:33;;;;;;;5.93;4.35;;;23.60;78.90;;;;;;5054861;28;20033;-80
2022/07/10 00:18:59;;;;;;;5.35;3.55;;;23.50;78.50;;;;;;5038652;28;20033;-80
2022/07/10 00:21:25;;;;;;;3.58;2.95;;;23.50;77.40;;;;;;5054785;28;20056;-79
2022/07/10 00:23:51;;;;;;;3.92;3.10;;;23.50;77.10;;;;;;5055733;28;20026;-80
2022/07/10 00:26:17;;;;;;;3.80;3.40;;;23.50;76.50;;;;;;5055125;28;20402;-80
2022/07/10 00:28:42;;;;;;;3.75;3.20;;;23.40;76.40;;;;;;5054827;28;20086;-80
2022/07/10 00:31:10;;;;;;;5.40;3.20;;;23.40;76.20;;;;;;5054964;28;20036;-79
2022/07/10 00:33:37;;;;;;;4.28;3.00;;;23.40;75.90;;;;;;5055242;28;20037;-80
2022/07/10 00:36:07;;;;;;;3.17;2.78;;;23.40;75.90;;;;;;5054575;28;20043;-78
2022/07/10 00:38:33;;;;;;;6.82;3.08;;;23.30;75.20;;;;;;5054597;28;20365;-79
2022/07/10 00:40:59;;;;;;;5.05;3.05;;;23.30;75.00;;;;;;5056447;28;20041;-80
2022/07/10 00:43:25;;;;;;;3.33;2.63;;;23.30;75.40;;;;;;5055457;28;20032;-79
2022/07/10 00:45:51;;;;;;;3.53;2.88;;;23.30;75.70;;;;;;5055387;28;20455;-79
2022/07/10 00:48:17;;;;;;;2.95;2.65;;;23.40;76.60;;;;;;5054464;28;20085;-78
2022/07/10 00:50:45;;;;;;;3.47;2.78;;;23.30;77.20;;;;;;5036492;28;20049;-78
2022/07/10 00:53:14;;;;;;;3.20;2.50;;;23.20;76.10;;;;;;5058294;28;20036;-79
2022/07/10 00:55:41;;;;;;;4.13;2.50;;;23.10;74.90;;;;;;5054750;28;21180;-78
2022/07/10 00:58:10;;;;;;;3.00;2.80;;;23.10;74.80;;;;;;5057794;28;20028;-79
2022/07/10 01:00:37;;;;;;;4.22;2.70;;;23.10;75.10;;;;;;5040928;28;20033;-80
2022/07/10 01:03:03;;;;;;;3.00;2.55;;;23.10;76.00;;;;;;5053946;28;20037;-80
2022/07/10 01:05:29;;;;;;;3.20;2.50;;;23.00;75.00;;;;;;5059265;28;20044;-80
2022/07/10 01:07:55;;;;;;;3.63;2.80;;;23.00;74.50;;;;;;5056252;28;20031;-80
2022/07/10 01:10:21;;;;;;;3.80;2.70;;;23.00;74.60;;;;;;5055545;28;20036;-79
2022/07/10 01:12:48;;;;;;;3.03;2.65;;;23.00;74.60;;;;;;5074022;28;20094;-79
2022/07/10 01:15:14;;;;;;;3.17;2.60;;;23.00;74.70;;;;;;5045954;28;20032;-79
2022/07/10 01:17:40;;;;;;;4.20;2.60;;;22.90;74.20;;;;;;5058490;28;20029;-79
2022/07/10 01:20:08;;;;;;;5.03;2.88;;;22.90;74.50;;;;;;5063241;28;20548;-79
2022/07/10 01:22:35;;;;;;;3.30;2.72;;;22.90;74.80;;;;;;5056654;28;20032;-79
2022/07/10 01:25:01;;;;;;;3.38;2.63;;;23.00;75.00;;;;;;5057775;28;20985;-80
2022/07/10 01:27:27;;;;;;;3.72;2.88;;;23.00;75.00;;;;;;5075189;28;20075;-80
2022/07/10 01:29:54;;;;;;;3.05;2.60;;;23.00;75.00;;;;;;5058170;28;20056;-80
2022/07/10 01:32:20;;;;;;;2.85;2.53;;;23.00;75.20;;;;;;5060348;28;20037;-79
2022/07/10 01:34:47;;;;;;;4.25;2.72;;;23.00;75.30;;;;;;5041845;28;20044;-80
2022/07/10 01:37:13;;;;;;;5.50;2.85;;;23.00;75.40;;;;;;5057436;28;20064;-80
2022/07/10 01:39:39;;;;;;;3.85;2.78;;;23.00;75.90;;;;;;5059254;28;20495;-80
2022/07/10 01:42:05;;;;;;;4.45;2.65;;;23.00;76.60;;;;;;5058966;28;20036;-79
2022/07/10 01:44:31;;;;;;;4.20;2.70;;;23.10;76.10;;;;;;5058451;28;20075;-80
2022/07/10 01:46:57;;;;;;;3.70;2.53;;;23.10;75.80;;;;;;5059024;28;20033;-79
2022/07/10 01:49:23;;;;;;;3.03;2.65;;;23.00;75.00;;;;;;5058751;28;20383;-80
2022/07/10 01:51:48;;;;;;;3.03;2.65;;;22.90;75.20;;;;;;5038928;28;20057;-80
2022/07/10 01:54:14;;;;;;;7.68;2.88;;;22.90;75.30;;;;;;5057052;28;20028;-79
2022/07/10 01:56:41;;;;;;;4.60;2.50;;;22.90;75.30;;;;;;5057749;28;20068;-79
2022/07/10 01:59:07;;;;;;;3.83;2.50;;;23.00;75.60;;;;;;5073461;28;20060;-79
2022/07/10 02:01:33;;;;;;;4.95;2.70;;;23.00;75.80;;;;;;5057903;28;20071;-79
2022/07/10 02:06:43;;;;;;;2.90;2.70;;;23.10;76.30;;;;;;5057188;28;20037;-79
2022/07/10 02:09:09;;;;;;;4.72;2.65;;;23.10;76.20;;;;;;5040456;28;20361;-80
2022/07/10 02:11:35;;;;;;;4.00;2.92;;;23.10;76.10;;;;;;5057838;28;20094;-80
2022/07/10 02:14:01;;;;;;;5.25;2.60;;;23.20;76.20;;;;;;5056705;28;20037;-78
2022/07/10 02:16:27;;;;;;;4.38;2.60;;;23.20;76.00;;;;;;5056985;28;20029;-79
2022/07/10 02:18:53;;;;;;;2.72;2.50;;;23.20;75.80;;;;;;5061142;28;20033;-79
2022/07/10 02:21:19;;;;;;;3.20;2.90;;;23.30;75.70;;;;;;5057850;28;20128;-80
2022/07/10 02:23:44;;;;;;;4.90;2.88;;;23.20;75.30;;;;;;5056351;28;20500;-80
2022/07/10 02:26:10;;;;;;;3.13;2.90;;;23.20;75.20;;;;;;5057770;28;20045;-79
2022/07/10 02:28:36;;;;;;;3.95;3.10;;;23.20;75.20;;;;;;5057984;28;20029;-79
2022/07/10 02:31:02;;;;;;;4.93;3.03;;;23.20;75.10;;;;;;5056080;28;20132;-80
2022/07/10 02:33:28;;;;;;;3.40;3.10;;;23.30;75.00;;;;;;5056372;28;20044;-80
2022/07/10 02:35:54;;;;;;;4.53;3.22;;;23.10;74.60;;;;;;5040254;28;20086;-79
2022/07/10 02:38:20;;;;;;;3.25;2.95;;;23.00;74.90;;;;;;5056299;28;20118;-79
2022/07/10 02:40:46;;;;;;;3.40;3.00;;;23.10;75.20;;;;;;5057047;28;20059;-80
2022/07/10 02:43:14;;;;;;;4.03;2.92;;;23.20;75.50;;;;;;5056848;28;20525;-80
2022/07/10 02:45:40;;;;;;;3.75;3.10;;;23.20;75.40;;;;;;5056956;28;20152;-80
2022/07/10 02:48:06;;;;;;;4.78;3.40;;;23.20;75.40;;;;;;5040724;28;20033;-80
2022/07/10 02:50:32;;;;;;;6.10;3.30;;;23.20;75.10;;;;;;5055791;28;20029;-81
2022/07/10 02:52:58;;;;;;;2.95;2.72;;;23.20;75.00;;;;;;5056623;28;20537;-80
2022/07/10 02:55:24;;;;;;;4.25;2.67;;;23.30;75.10;;;;;;5055238;28;20036;-80
2022/07/10 02:57:50;;;;;;;3.22;2.90;;;23.50;75.90;;;;;;5058017;28;20055;-81
2022/07/10 03:00:16;;;;;;;3.70;3.03;;;23.60;75.90;;;;;;5056905;28;20044;-80
2022/07/10 03:02:42;;;;;;;3.00;2.70;;;23.80;75.80;;;;;;5056493;28;20034;-80
2022/07/10 03:05:08;;;;;;;3.28;2.80;;;23.90;75.30;;;;;;5056522;28;20032;-80
2022/07/10 03:07:34;;;;;;;2.85;2.65;;;23.90;75.30;;;;;;5056360;28;20495;-81
2022/07/10 03:10:00;;;;;;;3.30;2.92;;;24.10;75.30;;;;;;5055692;28;20100;-81
2022/07/10 03:12:26;;;;;;;4.50;3.30;;;24.10;74.20;;;;;;5073266;28;20132;-82
2022/07/10 03:14:52;;;;;;;4.40;2.90;;;24.10;74.10;;;;;;5055621;28;20551;-82
2022/07/10 03:17:18;;;;;;;3.78;3.10;;;24.10;75.00;;;;;;5056954;28;20381;-82
2022/07/10 03:19:44;;;;;;;3.08;2.83;;;24.10;74.10;;;;;;5056193;28;20128;-81
2022/07/10 03:22:10;;;;;;;4.65;3.15;;;24.10;74.30;;;;;;5054305;28;20029;-82
2022/07/10 03:24:36;;;;;;;4.18;3.20;;;24.10;74.20;;;;;;5056683;28;20056;-81
2022/07/10 03:27:02;;;;;;;3.38;3.08;;;24.10;74.30;;;;;;5038236;28;20043;-81
2022/07/10 03:29:28;;;;;;;4.60;3.40;;;24.10;74.80;;;;;;5055877;28;20033;-81
2022/07/10 03:31:53;;;;;;;3.80;3.28;;;24.10;74.10;;;;;;5038808;28;20115;-82
2022/07/10 03:34:19;;;;;;;4.80;3.25;;;24.10;75.00;;;;;;5057793;28;20514;-81
2022/07/10 03:36:45;;;;;;;3.45;3.15;;;24.10;74.60;;;;;;5054980;28;20079;-81
2022/07/10 03:39:11;;;;;;;4.20;3.20;;;24.20;75.10;;;;;;5057101;28;20028;-82
2022/07/10 03:41:37;;;;;;;4.07;3.70;;;24.20;74.30;;;;;;5055058;28;20041;-80
2022/07/10 03:44:03;;;;;;;6.97;4.00;;;24.30;75.00;;;;;;5055750;28;20060;-81
2022/07/10 03:46:29;;;;;;;4.95;4.38;;;24.40;75.10;;;;;;5055520;28;20032;-80
2022/07/10 03:48:55;;;;;;;5.10;4.60;;;24.50;75.00;;;;;;5054838;28;20570;-81
2022/07/10 03:51:21;;;;;;;5.15;4.13;;;24.60;74.40;;;;;;5053923;28;20043;-81
2022/07/10 03:53:47;;;;;;;4.03;3.70;;;24.60;75.00;;;;;;5055689;28;20123;-81
2022/07/10 03:57:53;;;;;;;4.15;3.70;;;24.60;74.40;;;;;;5054964;28;20124;-81
2022/07/10 03:58:58;;;;;;;5.45;3.80;;;24.60;74.70;;;;;;5055444;28;20505;-80
2022/07/10 04:01:24;;;;;;;4.35;3.90;;;24.60;73.90;;;;;;5056345;28;20040;-81
2022/07/10 04:03:50;;;;;;;3.97;3.65;;;24.60;73.80;;;;;;5055613;28;20127;-80
2022/07/10 04:06:16;;;;;;;4.45;4.05;;;24.60;73.50;;;;;;5056094;28;20040;-81
2022/07/10 04:08:42;;;;;;;4.95;4.00;;;24.40;73.30;;;;;;5056556;28;20033;-81
2022/07/10 04:11:08;;;;;;;4.57;4.13;;;24.30;73.50;;;;;;5054268;28;20037;-81
2022/07/10 04:13:34;;;;;;;4.75;4.30;;;24.30;73.20;;;;;;5055520;28;20495;-81
2022/07/10 04:16:00;;;;;;;7.45;4.18;;;24.30;74.00;;;;;;5054765;28;20040;-81
2022/07/10 04:18:25;;;;;;;7.93;4.13;;;24.20;74.40;;;;;;5056053;28;20039;-80
2022/07/10 04:20:51;;;;;;;5.68;4.07;;;24.20;73.70;;;;;;5054376;28;20029;-81
2022/07/10 04:23:17;;;;;;;4.80;4.40;;;24.10;73.50;;;;;;5055038;28;20037;-81
2022/07/10 04:25:43;;;;;;;8.23;5.50;;;24.00;73.80;;;;;;5070987;28;20052;-81
2022/07/10 04:28:09;;;;;;;7.20;4.82;;;23.90;73.80;;;;;;5037878;28;20566;-81
2022/07/10 04:30:35;;;;;;;5.47;4.68;;;23.80;74.40;;;;;;5038266;28;20033;-80
2022/07/10 04:33:01;;;;;;;5.35;4.30;;;23.80;74.60;;;;;;5056111;28;20033;-81
2022/07/10 04:35:27;;;;;;;6.57;4.50;;;23.80;75.00;;;;;;5055357;28;20115;-81
2022/07/10 04:37:53;;;;;;;5.20;4.70;;;23.80;75.50;;;;;;5055362;28;20056;-82
2022/07/10 04:40:19;;;;;;;5.85;4.28;;;23.90;75.60;;;;;;5054264;28;20037;-81
2022/07/10 04:42:44;;;;;;;7.30;4.38;;;23.80;75.80;;;;;;5054176;28;20032;-80
2022/07/10 04:45:11;;;;;;;5.47;4.97;;;23.90;75.80;;;;;;5020422;28;20041;-85
2022/07/10 04:47:39;;;;;;;6.53;5.13;;;23.90;76.00;;;;;;5073984;28;20036;-87
2022/07/10 04:50:06;;;;;;;9.32;5.85;;;23.80;75.90;;;;;;5059069;28;20036;-86
2022/07/10 04:52:32;;;;;;;7.10;6.07;;;23.60;76.30;;;;;;5062698;28;20033;-85
2022/07/10 04:54:58;;;;;;;7.75;6.25;;;23.50;76.80;;;;;;5068155;28;20034;-79
2022/07/10 04:57:23;;;;;;;7.57;6.57;;;23.50;77.20;;;;;;5062063;28;20037;-86
2022/07/10 04:59:49;;;;;;;8.05;6.30;;;23.40;78.30;;;;;;5067479;28;20041;-84
2022/07/10 05:02:15;;;;;;;8.77;6.75;;;23.50;77.90;;;;;;5065034;28;20043;-86
2022/07/10 05:04:41;;;;;;;7.30;6.60;;;23.50;77.90;;;;;;5063351;28;20047;-82
2022/07/10 05:07:07;;;;;;;10.35;6.90;;;23.60;77.90;;;;;;5081817;28;20081;-88
2022/07/10 05:09:33;;;;;;;8.30;6.70;;;23.60;78.30;;;;;;5062737;28;20040;-86
2022/07/10 05:11:59;;;;;;;7.53;6.28;;;23.70;78.30;;;;;;5063191;28;20082;-86
2022/07/10 05:14:25;;;;;;;8.15;6.53;;;23.80;78.40;;;;;;5059966;28;20510;-88
2022/07/10 05:16:51;;;;;;;7.22;6.32;;;23.70;78.70;;;;;;5060241;28;20052;-88
2022/07/10 05:19:17;;;;;;;9.10;6.80;;;23.80;78.70;;;;;;5071459;28;20025;-82
2022/07/10 05:21:43;;;;;;;9.80;6.60;;;23.70;78.60;;;;;;5070805;28;20036;-88
2022/07/10 05:24:09;;;;;;;7.03;5.63;;;23.80;78.70;;;;;;5072549;28;20139;-88
2022/07/10 05:26:36;;;;;;;6.97;6.30;;;24.10;78.90;;;;;;5071004;28;20048;-88
2022/07/10 05:29:02;;;;;;;6.60;6.03;;;24.50;77.80;;;;;;5071081;28;20045;-79
2022/07/10 05:31:27;;;;;;;7.35;6.57;;;24.90;76.70;;;;;;5067222;28;20427;-86
2022/07/10 05:33:53;;;;;;;8.43;6.88;;;25.10;75.90;;;;;;5063072;28;20161;-83
2022/07/10 05:36:19;;;;;;;8.07;6.82;;;25.30;75.00;;;;;;5065859;28;20044;-87
2022/07/10 05:38:46;;;;;;;13.15;7.45;;;25.40;75.10;;;;;;5065854;28;20076;-87
2022/07/10 05:41:11;;;;;;;8.07;7.38;;;25.40;74.50;;;;;;5064702;28;20063;-86
2022/07/10 05:43:37;;;;;;;9.57;7.93;;;25.40;74.60;;;;;;5066261;28;20037;-82
2022/07/10 05:46:04;;;;;;;11.35;8.20;;;25.20;74.10;;;;;;5065014;28;20047;-90
2022/07/10 05:48:29;;;;;;;11.25;7.53;;;25.10;74.70;;;;;;5060193;28;20037;-91
2022/07/10 05:50:56;;;;;;;10.52;8.70;;;25.10;75.20;;;;;;5060169;28;20028;-91
2022/07/10 05:53:22;;;;;;;13.77;10.00;;;25.20;75.00;;;;;;5057914;28;20029;-89
2022/07/10 05:55:48;;;;;;;10.85;9.73;;;25.10;74.60;;;;;;5056409;28;20503;-88
2022/07/10 05:58:14;;;;;;;14.20;9.52;;;25.00;74.10;;;;;;5060385;28;20036;-86
2022/07/10 06:00:42;;;;;;;9.85;8.90;;;24.90;75.20;;;;;;5062160;28;20042;-87
2022/07/10 06:03:09;;;;;;;9.45;8.57;;;24.90;75.50;;;;;;5061820;28;20056;-89
2022/07/10 06:05:36;;;;;;;10.10;9.15;;;24.90;75.70;;;;;;5065992;28;20048;-87
2022/07/10 06:08:02;;;;;;;10.43;9.32;;;25.00;75.60;;;;;;5067209;28;20028;-84
2022/07/10 06:10:28;;;;;;;11.30;10.10;;;25.10;75.90;;;;;;5075007;28;20033;-80
2022/07/10 06:12:54;;;;;;;11.50;10.27;;;25.40;74.90;;;;;;5082393;28;20037;-84
2022/07/10 06:15:20;;;;;;;12.35;11.02;;;25.60;74.40;;;;;;5075186;28;20037;-81
2022/07/10 06:17:46;;;;;;;11.50;10.27;;;25.50;74.30;;;;;;5072315;28;20395;-87
2022/07/10 06:20:12;;;;;;;11.60;10.40;;;25.50;74.90;;;;;;5057272;28;20033;-89
2022/07/10 06:22:39;;;;;;;14.52;10.35;;;25.40;74.50;;;;;;5060855;28;20132;-86
2022/07/10 06:25:07;;;;;;;10.52;9.43;;;25.60;74.60;;;;;;5067249;28;20056;-88
2022/07/10 06:27:33;;;;;;;10.43;9.05;;;25.80;74.30;;;;;;5057458;28;20033;-88
2022/07/10 06:30:00;;;;;;;10.27;8.77;;;25.90;73.80;;;;;;5071745;28;20039;-88
2022/07/10 06:32:27;;;;;;;9.50;8.48;;;26.20;73.20;;;;;;5058804;28;20494;-87
2022/07/10 06:34:54;;;;;;;10.07;8.40;;;26.30;72.50;;;;;;5048736;28;20501;-87
2022/07/10 06:37:20;;;;;;;9.57;8.32;;;26.50;71.70;;;;;;5059596;28;20028;-77
2022/07/10 06:39:49;;;;;;;8.43;7.63;;;26.60;70.70;;;;;;5056901;28;20044;-76
2022/07/10 06:42:16;;;;;;;9.18;8.20;;;26.60;70.80;;;;;;5055033;28;20025;-77
2022/07/10 06:44:47;;;;;;;8.82;7.97;;;26.70;70.70;;;;;;5056344;28;20037;-77
2022/07/10 06:50:00;;;;;;;9.30;8.02;;;26.80;71.60;;;;;;5056824;28;20498;-76
2022/07/10 06:52:26;;;;;;;8.43;7.63;;;26.90;71.00;;;;;;5057330;28;20123;-76
2022/07/10 06:54:53;;;;;;;11.27;8.02;;;27.00;70.10;;;;;;5055852;28;20688;-77
2022/07/10 06:57:19;;;;;;;10.38;7.75;;;27.00;70.50;;;;;;5056224;28;20037;-78
2022/07/10 06:59:46;;;;;;;9.75;8.75;;;27.00;69.80;;;;;;5056174;28;20507;-79
2022/07/10 07:02:12;;;;;;;9.38;8.38;;;26.90;70.10;;;;;;5054365;28;20040;-79
2022/07/10 07:04:38;;;;;;;8.93;8.10;;;26.90;70.20;;;;;;5072982;28;20036;-78
2022/07/10 07:07:04;;;;;;;9.23;8.32;;;26.90;70.40;;;;;;5056883;28;20033;-79
2022/07/10 07:09:30;;;;;;;9.18;8.38;;;26.80;69.80;;;;;;5036098;28;20041;-78
2022/07/10 07:11:56;;;;;;;9.82;8.85;;;26.70;70.20;;;;;;5054594;28;20039;-78
2022/07/10 07:14:22;;;;;;;9.52;8.63;;;26.60;70.10;;;;;;5054261;28;20040;-77
2022/07/10 07:16:58;;;;;;;9.10;8.30;;;26.60;70.40;;;;;;5056277;28;20040;-77
2022/07/10 07:24:55;;;;;;;9.48;8.43;;;26.40;71.50;;;;;;4990147;28;20065;-75
2022/07/10 07:27:21;;;;;;;9.30;8.38;;;26.50;71.90;;;;;;5012945;28;20053;-80
2022/07/10 07:29:47;;;;;;;8.88;7.97;;;26.50;71.50;;;;;;5014140;28;20041;-76
2022/07/10 07:32:13;;;;;;;8.70;7.82;;;26.60;72.00;;;;;;5013648;28;20038;-76
2022/07/10 07:36:11;;;;;;;10.95;8.32;;;26.60;71.80;;;;;;5103808;27;20128;-75
2022/07/10 07:38:37;;;;;;;12.80;8.25;;;26.60;70.60;;;;;;5076968;28;20024;-76
2022/07/10 07:41:03;;;;;;;9.10;8.18;;;26.60;71.30;;;;;;5076942;28;20032;-76
2022/07/10 07:43:29;;;;;;;10.60;8.43;;;26.60;70.10;;;;;;5062311;28;20032;-76
2022/07/10 07:45:56;;;;;;;8.65;7.78;;;26.60;69.20;;;;;;5080404;28;20032;-76
2022/07/10 07:48:22;;;;;;;9.77;8.13;;;26.60;69.20;;;;;;5078662;28;20498;-76
2022/07/10 07:50:48;;;;;;;9.57;8.18;;;26.60;69.30;;;;;;5078148;28;20069;-74
2022/07/10 07:53:14;;;;;;;9.95;8.40;;;26.60;70.20;;;;;;5077068;28;20568;-76
2022/07/10 07:55:40;;;;;;;8.23;7.53;;;26.60;70.40;;;;;;5057693;28;20123;-73
2022/07/10 07:58:06;;;;;;;9.70;8.63;;;26.60;71.00;;;;;;5082550;28;20048;-78
2022/07/10 08:00:32;;;;;;;12.30;8.82;;;26.70;70.50;;;;;;5099954;28;20501;-77
2022/07/10 08:03:00;;;;;;;8.82;7.93;;;26.70;70.40;;;;;;5078981;28;20093;-77
2022/07/10 08:05:26;;;;;;;9.20;7.95;;;26.80;71.00;;;;;;5079433;28;20397;-77
2022/07/10 08:07:58;;;;;;;8.85;8.05;;;26.80;72.60;;;;;;5081756;28;20043;-77
2022/07/10 08:10:26;;;;;;;8.90;8.00;;;26.90;70.70;;;;;;5098637;28;20031;-78
2022/07/10 08:12:52;;;;;;;8.88;7.97;;;26.80;70.20;;;;;;5079440;28;20401;-77
2022/07/10 08:15:23;;;;;;;9.75;8.82;;;26.90;71.00;;;;;;5060439;28;21406;-77
2022/07/10 08:17:51;;;;;;;8.35;7.53;;;26.90;70.70;;;;;;5076207;28;20491;-77
2022/07/10 08:20:17;;;;;;;8.60;7.70;;;26.90;70.20;;;;;;5076976;28;20036;-77
2022/07/10 08:22:44;;;;;;;8.93;7.50;;;26.90;70.20;;;;;;5060032;28;20551;-77
2022/07/10 08:25:14;;;;;;;10.20;7.57;;;27.00;71.60;;;;;;5076947;28;20044;-77
2022/07/10 08:27:40;;;;;;;9.32;7.32;;;27.00;73.50;;;;;;5056394;28;20040;-76
2022/07/10 08:30:08;;;;;;;11.57;6.82;;;26.90;74.00;;;;;;5086187;28;20105;-86
2022/07/10 08:32:36;;;;;;;10.88;7.03;;;27.10;73.30;;;;;;5074472;28;20036;-86
2022/07/10 08:35:02;;;;;;;9.98;6.80;;;27.10;75.70;;;;;;5088885;28;20186;-85
2022/07/10 08:37:28;;;;;;;9.63;6.20;;;27.10;75.90;;;;;;5065799;28;20059;-84
2022/07/10 08:39:55;;;;;;;7.57;6.30;;;27.10;75.90;;;;;;5059504;28;20070;-85
2022/07/10 08:42:24;;;;;;;5.97;5.47;;;27.10;75.70;;;;;;5101556;28;20434;-84
2022/07/10 08:44:51;;;;;;;6.50;5.90;;;27.10;72.70;;;;;;5107602;28;20032;-85
2022/07/10 08:47:21;;;;;;;6.05;5.50;;;27.10;75.10;;;;;;5060050;28;20035;-84
2022/07/10 08:49:47;;;;;;;6.28;5.68;;;27.10;75.60;;;;;;5066570;28;20478;-84
2022/07/10 08:52:22;;;;;;;6.55;5.50;;;27.10;75.70;;;;;;5054584;28;20127;-85
2022/07/10 08:54:48;;;;;;;5.95;5.35;;;27.10;75.00;;;;;;5053843;28;20474;-85
2022/07/10 08:57:17;;;;;;;6.97;5.57;;;27.10;75.30;;;;;;5053978;28;20036;-84
2022/07/10 08:59:43;;;;;;;5.53;5.03;;;27.10;75.40;;;;;;5064612;28;20336;-84
2022/07/10 09:02:09;;;;;;;5.18;4.78;;;27.10;75.50;;;;;;5066167;28;20032;-84
2022/07/10 09:04:35;;;;;;;5.50;5.00;;;27.10;73.60;;;;;;5065546;28;20034;-83
2022/07/10 09:07:01;;;;;;;5.65;5.05;;;27.10;74.70;;;;;;5053312;28;20036;-83
2022/07/10 09:09:27;;;;;;;8.70;5.35;;;27.10;74.00;;;;;;5067611;28;20058;-82
2022/07/10 09:11:57;;;;;;;5.60;5.03;;;27.10;73.40;;;;;;5064030;28;20666;-82
2022/07/10 09:14:27;;;;;;;7.30;5.15;;;27.10;73.40;;;;;;5036669;28;20510;-83
2022/07/10 09:16:53;;;;;;;5.90;5.13;;;27.10;71.60;;;;;;5080983;28;20028;-83
2022/07/10 09:19:22;;;;;;;6.15;5.22;;;27.20;72.00;;;;;;5053146;28;20119;-82
2022/07/10 09:22:09;;;;;;;5.93;5.32;;;27.10;73.00;;;;;;5066624;28;20028;-83
2022/07/10 09:24:36;;;;;;;5.50;5.10;;;27.20;72.80;;;;;;5052936;28;20036;-83
2022/07/10 09:27:06;;;;;;;6.95;4.80;;;27.10;72.90;;;;;;5052136;28;20032;-83
2022/07/10 09:29:33;;;;;;;5.63;5.07;;;27.10;73.70;;;;;;5038172;28;20055;-84
2022/07/10 09:32:01;;;;;;;4.97;4.47;;;27.10;73.20;;;;;;5083695;28;20256;-84
2022/07/10 09:34:42;;;;;;;7.32;5.25;;;27.10;71.40;;;;;;5071239;28;20079;-84
2022/07/10 09:37:18;;;;;;;4.80;4.40;;;27.10;71.40;;;;;;5084336;28;20039;-83
2022/07/10 09:40:01;;;;;;;4.93;4.13;;;27.10;70.70;;;;;;5035905;28;20040;-83
2022/07/10 09:42:37;;;;;;;4.70;4.15;;;27.20;71.80;;;;;;5053224;28;20487;-84
2022/07/10 09:45:12;;;;;;;4.05;3.75;;;27.20;70.40;;;;;;5042295;28;20519;-84
2022/07/10 09:47:55;;;;;;;4.72;3.67;;;27.20;70.90;;;;;;5033226;28;20044;-85
2022/07/10 09:50:34;;;;;;;4.20;3.80;;;27.10;71.50;;;;;;5049621;28;20029;-84
2022/07/10 09:53:05;;;;;;;5.47;3.58;;;27.10;71.20;;;;;;5042612;28;20561;-84
2022/07/10 09:55:34;;;;;;;3.92;3.63;;;27.10;69.90;;;;;;5050208;28;20064;-84
2022/07/10 09:58:06;;;;;;;3.50;3.20;;;27.10;68.20;;;;;;5059576;28;20032;-84
2022/07/10 10:00:46;;;;;;;5.35;3.20;;;27.10;70.60;;;;;;5031735;28;20067;-84
2022/07/10 10:03:15;;;;;;;3.45;3.08;;;27.10;67.90;;;;;;5044666;28;20090;-84
2022/07/10 10:05:55;;;;;;;6.65;2.90;;;27.10;66.20;;;;;;5053546;28;20082;-84
2022/07/10 10:08:25;;;;;;;5.50;2.85;;;27.10;68.10;;;;;;5081021;28;20033;-83
2022/07/10 10:10:52;;;;;;;3.60;2.85;;;27.10;67.90;;;;;;5052444;28;20498;-84
2022/07/10 10:13:22;;;;;;;3.25;2.75;;;27.10;67.70;;;;;;5052500;28;20049;-84
2022/07/10 10:15:50;;;;;;;4.03;2.72;;;27.10;67.00;;;;;;5053041;28;20040;-84
2022/07/10 10:18:25;;;;;;;4.68;2.70;;;27.10;66.90;;;;;;5037144;28;20093;-85
2022/07/10 10:20:53;;;;;;;4.20;3.10;;;27.10;65.00;;;;;;5047661;28;20120;-85
2022/07/10 10:23:21;;;;;;;3.42;3.13;;;27.00;65.10;;;;;;5051615;28;20274;-84
2022/07/10 10:25:52;;;;;;;5.38;3.22;;;27.10;66.00;;;;;;5081598;28;20028;-84
2022/07/10 10:28:25;;;;;;;4.68;3.40;;;27.10;65.10;;;;;;5036630;28;20028;-84
2022/07/10 10:31:01;;;;;;;4.38;3.38;;;27.10;65.50;;;;;;5064999;28;20036;-84
2022/07/10 10:33:42;;;;;;;3.97;3.15;;;27.00;65.80;;;;;;5046582;28;20040;-84
2022/07/10 10:37:07;;;;;;;3.83;3.42;;;27.00;66.00;;;;;;5082913;28;20414;-85
2022/07/10 10:40:05;;;;;;;4.90;3.33;;;27.00;65.80;;;;;;5035321;28;20036;-85
2022/07/10 10:42:52;;;;;;;4.20;3.78;;;27.10;64.70;;;;;;5077327;28;20032;-84
2022/07/10 10:45:27;;;;;;;4.53;2.97;;;27.00;65.50;;;;;;5050652;28;20032;-83
2022/07/10 10:48:16;;;;;;;4.35;3.35;;;27.00;64.70;;;;;;5051872;28;20096;-84
2022/07/10 10:50:45;;;;;;;3.65;3.30;;;27.00;62.80;;;;;;5030504;28;20028;-86
2022/07/10 10:56:14;;;;;;;3.22;2.92;;;27.00;63.60;;;;;;5069456;28;20045;-85
2022/07/10 10:59:22;;;;;;;3.00;2.70;;;27.10;64.50;;;;;;5041069;28;20110;-84
2022/07/10 11:02:29;;;;;;;4.60;2.70;;;27.10;63.40;;;;;;5036451;28;20056;-85
2022/07/10 11:05:14;;;;;;;2.95;2.75;;;27.00;66.00;;;;;;5060265;28;20028;-85
2022/07/10 11:07:58;;;;;;;3.95;2.88;;;27.10;66.20;;;;;;5041897;28;20035;-84
2022/07/10 11:10:36;;;;;;;3.20;3.00;;;27.10;65.90;;;;;;5052523;28;20383;-86
2022/07/10 11:13:29;;;;;;;4.13;2.90;;;27.10;66.50;;;;;;5033422;28;20086;-83
2022/07/10 11:17:27;;;;;;;2.53;2.38;;;27.10;65.50;;;;;;5029955;28;20041;-83
2022/07/10 11:19:53;;;;;;;3.78;2.65;;;27.10;63.50;;;;;;5051157;28;20039;-84
2022/07/10 11:22:44;;;;;;;4.50;2.40;;;27.10;65.80;;;;;;5048306;28;20040;-83
2022/07/10 11:29:22;;;;;;;2.65;2.30;;;27.10;64.90;;;;;;5059046;28;20105;-85
2022/07/10 11:34:50;;;;;;;2.88;2.50;;;27.10;65.20;;;;;;4997418;28;20049;-84
2022/07/10 11:37:16;;;;;;;2.95;2.45;;;27.10;64.50;;;;;;4994120;28;20428;-86
2022/07/10 11:39:43;;;;;;;5.88;2.38;;;27.10;63.70;;;;;;4989902;28;20041;-86
2022/07/10 11:42:09;;;;;;;4.68;2.50;;;27.10;64.60;;;;;;4983839;28;20039;-84
2022/07/10 11:44:35;;;;;;;2.83;2.30;;;27.10;64.40;;;;;;4982863;28;20053;-84
2022/07/10 11:47:02;;;;;;;3.03;2.35;;;27.10;64.70;;;;;;4997913;28;20108;-84
2022/07/10 11:49:29;;;;;;;2.88;2.58;;;27.10;65.40;;;;;;4999989;28;20030;-84
2022/07/10 11:52:02;;;;;;;3.33;2.50;;;27.10;65.60;;;;;;4988253;28;20408;-85
2022/07/10 11:54:28;;;;;;;7.38;2.85;;;27.10;65.60;;;;;;4986748;28;20038;-85
2022/07/10 11:56:54;;;;;;;2.90;2.42;;;27.10;66.10;;;;;;4966259;28;20030;-85
2022/07/10 11:59:27;;;;;;;3.55;2.78;;;27.10;66.00;;;;;;4981313;28;20038;-83
2022/07/10 12:01:55;;;;;;;4.15;2.78;;;27.20;66.50;;;;;;4965465;28;20049;-85
2022/07/10 12:04:24;;;;;;;3.10;2.47;;;27.10;66.90;;;;;;4967476;28;20034;-86
2022/07/10 12:06:51;;;;;;;3.03;2.72;;;27.10;67.30;;;;;;4983063;28;20081;-85
2022/07/10 12:09:22;;;;;;;2.80;2.50;;;27.10;65.60;;;;;;4967458;28;20113;-85
2022/07/10 12:12:22;;;;;;;3.40;2.90;;;27.10;67.10;;;;;;4987103;28;20036;-85
2022/07/10 12:14:48;;;;;;;3.08;2.78;;;27.10;65.80;;;;;;5024676;28;20044;-86
2022/07/10 12:17:16;;;;;;;2.95;2.70;;;27.10;66.70;;;;;;5024721;28;20033;-85
2022/07/10 12:19:43;;;;;;;4.97;2.45;;;27.10;67.00;;;;;;5025837;28;20411;-85
2022/07/10 12:22:09;;;;;;;3.03;2.70;;;27.10;68.00;;;;;;5061398;28;20057;-83
2022/07/10 12:24:35;;;;;;;4.38;3.00;;;27.20;68.20;;;;;;5062513;28;20384;-85
2022/07/10 12:27:02;;;;;;;3.05;2.83;;;27.20;67.50;;;;;;5044465;28;20626;-85
2022/07/10 12:29:29;;;;;;;4.57;3.10;;;27.10;66.90;;;;;;5062181;28;20033;-84
2022/07/10 12:32:02;;;;;;;6.35;2.78;;;27.20;67.70;;;;;;5045615;28;20040;-84
2022/07/10 12:34:42;;;;;;;5.50;2.80;;;27.20;66.80;;;;;;5028310;28;20073;-85
2022/07/10 12:37:09;;;;;;;5.05;2.92;;;27.30;64.40;;;;;;5040905;28;20415;-85
2022/07/10 12:39:38;;;;;;;3.50;2.90;;;27.20;67.40;;;;;;5056486;28;20034;-85
2022/07/10 12:42:06;;;;;;;5.13;3.03;;;27.20;66.90;;;;;;5026328;28;20041;-85
2022/07/10 12:44:36;;;;;;;4.63;2.88;;;27.20;67.80;;;;;;5022604;28;20045;-85
2022/07/10 12:47:22;;;;;;;4.93;2.80;;;27.30;68.20;;;;;;5025712;28;20144;-85
2022/07/10 12:49:55;;;;;;;2.97;2.72;;;27.30;68.90;;;;;;5008922;28;20033;-84
2022/07/10 12:52:29;;;;;;;3.00;2.70;;;27.30;68.10;;;;;;5006677;28;20514;-84
2022/07/10 12:55:21;;;;;;;4.50;2.75;;;27.30;64.70;;;;;;5023161;28;20037;-85
2022/07/10 12:57:54;;;;;;;4.20;2.90;;;27.30;67.70;;;;;;5055700;28;20033;-85
2022/07/10 13:00:30;;;;;;;3.38;3.08;;;27.30;67.20;;;;;;5023004;28;20036;-83
2022/07/10 13:03:08;;;;;;;4.60;2.70;;;27.30;67.80;;;;;;5058565;28;20103;-85
2022/07/10 13:05:36;;;;;;;3.13;2.88;;;27.30;67.30;;;;;;5039396;28;20041;-85
2022/07/10 13:08:18;;;;;;;3.28;2.95;;;27.30;65.80;;;;;;5038120;28;20091;-84
2022/07/10 13:10:49;;;;;;;3.90;3.17;;;27.30;67.00;;;;;;5056663;28;20511;-84
2022/07/10 13:13:16;;;;;;;3.70;2.88;;;27.30;64.20;;;;;;5055391;28;20112;-85
2022/07/10 13:15:47;;;;;;;5.80;3.28;;;27.30;66.70;;;;;;5021095;28;20477;-85
2022/07/10 13:18:21;;;;;;;4.45;2.97;;;27.30;63.40;;;;;;5054933;28;20401;-85